sensor_id;sensor_type;location;lat;lon;timestamp;pressure;altitude;pressure_sealevel;temperature;humidity
75146;BME280;63641;46.526;24.612;2022-12-08T00:01:26;97177.28;;;0.59;72.08
75146;BME280;63641;46.526;24.612;2022-12-08T00:03:54;97180.56;;;0.61;72.29
75146;BME280;63641;46.526;24.612;2022-12-08T00:06:27;97180.19;;;0.57;72.32
75146;BME280;63641;46.526;24.612;2022-12-08T00:11:55;97178.63;;;0.50;72.05
75146;BME280;63641;46.526;24.612;2022-12-08T00:14:31;97177.44;;;0.45;72.21
75146;BME280;63641;46.526;24.612;2022-12-08T00:16:59;97166.25;;;0.37;72.36
75146;BME280;63641;46.526;24.612;2022-12-08T00:19:26;97182.81;;;0.39;71.91
75146;BME280;63641;46.526;24.612;2022-12-08T00:21:54;97174.69;;;0.34;72.07
75146;BME280;63641;46.526;24.612;2022-12-08T00:24:24;97189.25;;;0.31;72.16
75146;BME280;63641;46.526;24.612;2022-12-08T00:26:54;97185.38;;;0.27;72.11
75146;BME280;63641;46.526;24.612;2022-12-08T00:29:21;97187.00;;;0.28;71.90
75146;BME280;63641;46.526;24.612;2022-12-08T00:31:48;97184.59;;;0.27;71.80
75146;BME280;63641;46.526;24.612;2022-12-08T00:34:15;97185.22;;;0.22;71.92
75146;BME280;63641;46.526;24.612;2022-12-08T00:36:42;97179.97;;;0.15;72.00
75146;BME280;63641;46.526;24.612;2022-12-08T00:39:10;97181.44;;;0.11;72.25
75146;BME280;63641;46.526;24.612;2022-12-08T00:41:37;97180.59;;;0.11;71.89
75146;BME280;63641;46.526;24.612;2022-12-08T00:44:23;97186.16;;;0.09;71.94
75146;BME280;63641;46.526;24.612;2022-12-08T00:46:49;97186.59;;;0.06;72.00
75146;BME280;63641;46.526;24.612;2022-12-08T00:49:16;97193.38;;;0.02;72.16
75146;BME280;63641;46.526;24.612;2022-12-08T00:51:43;97191.38;;;-0.03;72.03
75146;BME280;63641;46.526;24.612;2022-12-08T00:54:10;97189.38;;;-0.07;71.90
75146;BME280;63641;46.526;24.612;2022-12-08T00:56:37;97188.16;;;-0.11;72.11
75146;BME280;63641;46.526;24.612;2022-12-08T00:59:05;97187.78;;;-0.15;72.25
75146;BME280;63641;46.526;24.612;2022-12-08T01:04:39;97200.09;;;-0.20;71.95
75146;BME280;63641;46.526;24.612;2022-12-08T01:07:06;97209.53;;;-0.25;72.34
75146;BME280;63641;46.526;24.612;2022-12-08T01:09:33;97207.09;;;-0.26;72.07
75146;BME280;63641;46.526;24.612;2022-12-08T01:12:00;97206.28;;;-0.27;72.36
75146;BME280;63641;46.526;24.612;2022-12-08T01:14:27;97213.25;;;-0.26;71.98
75146;BME280;63641;46.526;24.612;2022-12-08T01:16:53;97214.44;;;-0.21;72.31
75146;BME280;63641;46.526;24.612;2022-12-08T01:19:20;97203.59;;;-0.27;71.88
75146;BME280;63641;46.526;24.612;2022-12-08T01:21:48;97200.94;;;-0.27;72.18
75146;BME280;63641;46.526;24.612;2022-12-08T01:24:17;97209.16;;;-0.28;72.14
75146;BME280;63641;46.526;24.612;2022-12-08T01:26:44;97201.59;;;-0.31;72.25
75146;BME280;63641;46.526;24.612;2022-12-08T01:29:12;97201.59;;;-0.31;71.97
75146;BME280;63641;46.526;24.612;2022-12-08T01:31:38;97196.94;;;-0.36;71.86
75146;BME280;63641;46.526;24.612;2022-12-08T01:34:05;97204.53;;;-0.39;72.24
75146;BME280;63641;46.526;24.612;2022-12-08T01:36:34;97199.88;;;-0.44;72.35
75146;BME280;63641;46.526;24.612;2022-12-08T01:39:07;97201.28;;;-0.48;72.16
75146;BME280;63641;46.526;24.612;2022-12-08T01:41:36;97177.66;;;-0.63;71.99
75146;BME280;63641;46.526;24.612;2022-12-08T01:46:41;97199.09;;;-0.51;72.05
75146;BME280;63641;46.526;24.612;2022-12-08T01:49:15;97202.56;;;-0.51;72.21
75146;BME280;63641;46.526;24.612;2022-12-08T01:54:23;97193.56;;;-0.56;71.94
75146;BME280;63641;46.526;24.612;2022-12-08T01:57:02;97199.13;;;-0.58;71.82
75146;BME280;63641;46.526;24.612;2022-12-08T01:59:32;97197.09;;;-0.62;72.00
75146;BME280;63641;46.526;24.612;2022-12-08T02:02:00;97200.78;;;-0.63;71.88
75146;BME280;63641;46.526;24.612;2022-12-08T02:04:27;97205.50;;;-0.65;71.79
75146;BME280;63641;46.526;24.612;2022-12-08T02:06:54;97201.41;;;-0.68;71.92
75146;BME280;63641;46.526;24.612;2022-12-08T02:09:21;97200.84;;;-0.70;72.01
75146;BME280;63641;46.526;24.612;2022-12-08T02:11:49;97207.38;;;-0.73;71.71
75146;BME280;63641;46.526;24.612;2022-12-08T02:14:16;97207.78;;;-0.76;71.63
75146;BME280;63641;46.526;24.612;2022-12-08T02:23:07;97208.84;;;-0.83;71.62
75146;BME280;63641;46.526;24.612;2022-12-08T02:31:35;97215.25;;;-0.98;71.90
75146;BME280;63641;46.526;24.612;2022-12-08T02:37:11;97213.81;;;-1.00;71.68
75146;BME280;63641;46.526;24.612;2022-12-08T02:42:25;97218.53;;;-1.02;71.62
75146;BME280;63641;46.526;24.612;2022-12-08T02:47:22;97217.34;;;-1.06;71.57
75146;BME280;63641;46.526;24.612;2022-12-08T02:49:50;97221.22;;;-1.09;71.65
75146;BME280;63641;46.526;24.612;2022-12-08T02:54:50;97228.78;;;-1.12;71.90
75146;BME280;63641;46.526;24.612;2022-12-08T03:00:13;97231.66;;;-1.14;71.82
75146;BME280;63641;46.526;24.612;2022-12-08T03:05:41;97229.81;;;-1.20;72.13
75146;BME280;63641;46.526;24.612;2022-12-08T03:08:19;97233.50;;;-1.21;72.02
75146;BME280;63641;46.526;24.612;2022-12-08T03:13:44;97225.75;;;-1.23;72.09
75146;BME280;63641;46.526;24.612;2022-12-08T03:16:15;97223.91;;;-1.22;72.18
75146;BME280;63641;46.526;24.612;2022-12-08T03:18:47;97216.97;;;-1.23;72.18
75146;BME280;63641;46.526;24.612;2022-12-08T03:21:16;97189.44;;;-1.35;71.95
75146;BME280;63641;46.526;24.612;2022-12-08T03:23:45;97211.88;;;-1.25;72.21
75146;BME280;63641;46.526;24.612;2022-12-08T03:26:22;97208.81;;;-1.28;72.43
75146;BME280;63641;46.526;24.612;2022-12-08T03:28:50;97208.00;;;-1.29;72.61
75146;BME280;63641;46.526;24.612;2022-12-08T03:31:18;97218.63;;;-1.29;72.37
75146;BME280;63641;46.526;24.612;2022-12-08T03:33:49;97225.97;;;-1.24;72.49
75146;BME280;63641;46.526;24.612;2022-12-08T03:36:17;97222.28;;;-1.23;72.41
75146;BME280;63641;46.526;24.612;2022-12-08T03:38:45;97224.13;;;-1.24;72.68
75146;BME280;63641;46.526;24.612;2022-12-08T03:41:15;97209.81;;;-1.29;72.55
75146;BME280;63641;46.526;24.612;2022-12-08T03:43:49;97221.47;;;-1.24;72.59
75146;BME280;63641;46.526;24.612;2022-12-08T03:46:17;97219.84;;;-1.25;72.82
75146;BME280;63641;46.526;24.612;2022-12-08T03:48:43;97221.47;;;-1.24;72.87
75146;BME280;63641;46.526;24.612;2022-12-08T03:51:10;97221.88;;;-1.27;73.00
75146;BME280;63641;46.526;24.612;2022-12-08T03:53:37;97217.59;;;-1.28;72.98
75146;BME280;63641;46.526;24.612;2022-12-08T03:56:18;97219.44;;;-1.28;73.35
75146;BME280;63641;46.526;24.612;2022-12-08T03:58:46;97215.38;;;-1.37;73.25
75146;BME280;63641;46.526;24.612;2022-12-08T04:01:12;97224.34;;;-1.32;73.47
75146;BME280;63641;46.526;24.612;2022-12-08T04:03:39;97219.44;;;-1.35;73.54
75146;BME280;63641;46.526;24.612;2022-12-08T04:06:06;97222.50;;;-1.38;73.34
75146;BME280;63641;46.526;24.612;2022-12-08T04:08:33;97215.78;;;-1.40;73.63
75146;BME280;63641;46.526;24.612;2022-12-08T04:10:59;97209.47;;;-1.46;73.58
75146;BME280;63641;46.526;24.612;2022-12-08T04:13:26;97218.88;;;-1.43;73.50
75146;BME280;63641;46.526;24.612;2022-12-08T04:15:53;97214.16;;;-1.48;73.62
75146;BME280;63641;46.526;24.612;2022-12-08T04:18:19;97219.06;;;-1.52;73.76
75146;BME280;63641;46.526;24.612;2022-12-08T04:20:46;97212.13;;;-1.53;73.84
75146;BME280;63641;46.526;24.612;2022-12-08T04:23:13;97210.69;;;-1.55;73.69
75146;BME280;63641;46.526;24.612;2022-12-08T04:25:40;97200.09;;;-1.55;73.80
75146;BME280;63641;46.526;24.612;2022-12-08T04:28:07;97204.81;;;-1.57;73.67
75146;BME280;63641;46.526;24.612;2022-12-08T04:30:34;97204.81;;;-1.57;73.52
75146;BME280;63641;46.526;24.612;2022-12-08T04:33:00;97196.63;;;-1.62;73.58
75146;BME280;63641;46.526;24.612;2022-12-08T04:35:28;97196.84;;;-1.57;73.40
75146;BME280;63641;46.526;24.612;2022-12-08T04:37:55;97201.94;;;-1.56;73.60
75146;BME280;63641;46.526;24.612;2022-12-08T04:40:22;97191.31;;;-1.56;73.61
75146;BME280;63641;46.526;24.612;2022-12-08T04:42:49;97195.00;;;-1.57;73.30
75146;BME280;63641;46.526;24.612;2022-12-08T04:45:16;97190.31;;;-1.61;73.12
75146;BME280;63641;46.526;24.612;2022-12-08T04:47:43;97200.72;;;-1.60;73.50
75146;BME280;63641;46.526;24.612;2022-12-08T04:50:10;97201.53;;;-1.59;73.25
75146;BME280;63641;46.526;24.612;2022-12-08T04:52:38;97210.94;;;-1.57;73.30
75146;BME280;63641;46.526;24.612;2022-12-08T04:55:05;97222.75;;;-1.59;73.06
75146;BME280;63641;46.526;24.612;2022-12-08T04:57:32;97222.75;;;-1.59;73.38
75146;BME280;63641;46.526;24.612;2022-12-08T04:59:59;97227.25;;;-1.60;73.27
75146;BME280;63641;46.526;24.612;2022-12-08T05:02:25;97231.53;;;-1.59;73.06
75146;BME280;63641;46.526;24.612;2022-12-08T05:04:53;97228.88;;;-1.59;73.22
75146;BME280;63641;46.526;24.612;2022-12-08T05:07:19;97229.31;;;-1.62;73.22
75146;BME280;63641;46.526;24.612;2022-12-08T05:09:47;97219.28;;;-1.60;73.23
75146;BME280;63641;46.526;24.612;2022-12-08T05:12:13;97228.69;;;-1.57;73.25
75146;BME280;63641;46.526;24.612;2022-12-08T05:14:40;97227.25;;;-1.53;73.78
75146;BME280;63641;46.526;24.612;2022-12-08T05:17:07;97232.34;;;-1.52;73.72
75146;BME280;63641;46.526;24.612;2022-12-08T05:19:35;97236.59;;;-1.44;73.68
75146;BME280;63641;46.526;24.612;2022-12-08T05:22:02;97249.28;;;-1.39;73.67
75146;BME280;63641;46.526;24.612;2022-12-08T05:24:28;97239.88;;;-1.35;73.77
75146;BME280;63641;46.526;24.612;2022-12-08T05:26:55;97247.63;;;-1.34;74.10
75146;BME280;63641;46.526;24.612;2022-12-08T05:29:22;97243.53;;;-1.30;74.20
75146;BME280;63641;46.526;24.612;2022-12-08T05:31:49;97244.13;;;-1.28;74.00
75146;BME280;63641;46.526;24.612;2022-12-08T05:34:16;97240.88;;;-1.30;74.09
75146;BME280;63641;46.526;24.612;2022-12-08T05:36:43;97252.69;;;-1.19;74.16
75146;BME280;63641;46.526;24.612;2022-12-08T05:39:14;97255.75;;;-1.15;74.48
75146;BME280;63641;46.526;24.612;2022-12-08T05:41:41;97259.84;;;-1.13;74.05
75146;BME280;63641;46.526;24.612;2022-12-08T05:44:07;97255.94;;;-1.10;74.11
75146;BME280;63641;46.526;24.612;2022-12-08T05:46:35;97250.19;;;-1.07;74.21
75146;BME280;63641;46.526;24.612;2022-12-08T05:49:03;97243.06;;;-1.07;74.52
75146;BME280;63641;46.526;24.612;2022-12-08T05:51:29;97235.91;;;-1.06;74.65
75146;BME280;63641;46.526;24.612;2022-12-08T05:53:56;97242.63;;;-1.04;74.78
75146;BME280;63641;46.526;24.612;2022-12-08T05:56:23;97239.38;;;-0.99;74.93
75146;BME280;63641;46.526;24.612;2022-12-08T05:58:50;97238.50;;;-0.93;74.46
75146;BME280;63641;46.526;24.612;2022-12-08T06:01:28;97234.63;;;-0.90;75.01
75146;BME280;63641;46.526;24.612;2022-12-08T06:03:57;97245.81;;;-0.82;74.86
75146;BME280;63641;46.526;24.612;2022-12-08T06:06:24;97247.88;;;-0.77;74.86
75146;BME280;63641;46.526;24.612;2022-12-08T06:08:51;97251.34;;;-0.77;74.99
75146;BME280;63641;46.526;24.612;2022-12-08T06:11:25;97264.59;;;-0.70;75.09
75146;BME280;63641;46.526;24.612;2022-12-08T06:13:53;97264.97;;;-0.66;75.01
75146;BME280;63641;46.526;24.612;2022-12-08T06:16:22;97257.59;;;-0.64;74.91
75146;BME280;63641;46.526;24.612;2022-12-08T06:18:49;97268.41;;;-0.59;75.21
75146;BME280;63641;46.526;24.612;2022-12-08T06:21:16;97251.47;;;-0.58;75.00
75146;BME280;63641;46.526;24.612;2022-12-08T06:23:47;97255.91;;;-0.52;75.08
75146;BME280;63641;46.526;24.612;2022-12-08T06:26:15;97257.09;;;-0.48;75.38
75146;BME280;63641;46.526;24.612;2022-12-08T06:28:42;97257.31;;;-0.43;75.14
75146;BME280;63641;46.526;24.612;2022-12-08T06:31:14;97260.34;;;-0.39;75.35
75146;BME280;63641;46.526;24.612;2022-12-08T06:33:41;97261.78;;;-0.37;75.44
75146;BME280;63641;46.526;24.612;2022-12-08T06:36:09;97260.31;;;-0.33;75.07
75146;BME280;63641;46.526;24.612;2022-12-08T06:38:37;97258.47;;;-0.32;75.33
75146;BME280;63641;46.526;24.612;2022-12-08T06:41:09;97260.25;;;-0.26;75.51
75146;BME280;63641;46.526;24.612;2022-12-08T06:43:36;97272.31;;;-0.23;75.19
75146;BME280;63641;46.526;24.612;2022-12-08T06:46:06;97280.69;;;-0.20;75.70
75146;BME280;63641;46.526;24.612;2022-12-08T06:48:33;97267.78;;;-0.16;75.38
75146;BME280;63641;46.526;24.612;2022-12-08T06:51:11;97266.75;;;-0.15;75.37
75146;BME280;63641;46.526;24.612;2022-12-08T06:53:40;97266.53;;;-0.14;75.45
75146;BME280;63641;46.526;24.612;2022-12-08T06:56:07;97267.75;;;-0.10;75.71
75146;BME280;63641;46.526;24.612;2022-12-08T06:58:34;97271.81;;;-0.07;75.55
75146;BME280;63641;46.526;24.612;2022-12-08T07:01:06;97274.03;;;-0.04;75.52
75146;BME280;63641;46.526;24.612;2022-12-08T07:03:33;97277.72;;;-0.05;75.41
75146;BME280;63641;46.526;24.612;2022-12-08T07:06:00;97292.22;;;-0.01;75.93
75146;BME280;63641;46.526;24.612;2022-12-08T07:08:30;97297.34;;;0.01;75.92
75146;BME280;63641;46.526;24.612;2022-12-08T07:10:57;97297.75;;;0.04;75.89
75146;BME280;63641;46.526;24.612;2022-12-08T07:13:24;97293.63;;;0.08;76.02
75146;BME280;63641;46.526;24.612;2022-12-08T07:15:50;97293.78;;;0.13;75.90
75146;BME280;63641;46.526;24.612;2022-12-08T07:18:17;97296.59;;;0.18;76.00
75146;BME280;63641;46.526;24.612;2022-12-08T07:20:44;97297.44;;;0.19;75.61
75146;BME280;63641;46.526;24.612;2022-12-08T07:23:11;97301.88;;;0.25;75.87
75146;BME280;63641;46.526;24.612;2022-12-08T07:25:38;97306.56;;;0.30;76.00
75146;BME280;63641;46.526;24.612;2022-12-08T07:28:11;97289.34;;;0.32;75.46
75146;BME280;63641;46.526;24.612;2022-12-08T07:30:38;97298.88;;;0.40;75.96
75146;BME280;63641;46.526;24.612;2022-12-08T07:33:05;97286.78;;;0.44;75.72
75146;BME280;63641;46.526;24.612;2022-12-08T07:35:32;97292.06;;;0.51;75.93
75146;BME280;63641;46.526;24.612;2022-12-08T07:38:01;97287.09;;;0.54;76.08
75146;BME280;63641;46.526;24.612;2022-12-08T07:40:27;97297.94;;;0.59;75.83
75146;BME280;63641;46.526;24.612;2022-12-08T07:42:54;97308.72;;;0.64;75.71
75146;BME280;63641;46.526;24.612;2022-12-08T07:45:21;97312.34;;;0.70;76.06
75146;BME280;63641;46.526;24.612;2022-12-08T07:47:56;97301.06;;;0.75;75.77
75146;BME280;63641;46.526;24.612;2022-12-08T07:50:23;97302.25;;;0.79;75.84
75146;BME280;63641;46.526;24.612;2022-12-08T07:52:49;97303.22;;;0.84;76.00
75146;BME280;63641;46.526;24.612;2022-12-08T07:55:16;97298.88;;;0.90;75.94
75146;BME280;63641;46.526;24.612;2022-12-08T07:57:43;97299.00;;;0.95;76.01
75146;BME280;63641;46.526;24.612;2022-12-08T08:00:10;97309.97;;;1.05;75.86
75146;BME280;63641;46.526;24.612;2022-12-08T08:02:37;97309.09;;;1.11;75.81
75146;BME280;63641;46.526;24.612;2022-12-08T08:05:05;97305.78;;;1.16;75.99
75146;BME280;63641;46.526;24.612;2022-12-08T08:07:32;97291.19;;;1.18;75.98
75146;BME280;63641;46.526;24.612;2022-12-08T08:09:59;97288.09;;;1.22;76.01
75146;BME280;63641;46.526;24.612;2022-12-08T08:12:26;97302.97;;;1.29;76.13
75146;BME280;63641;46.526;24.612;2022-12-08T08:15:02;97313.78;;;1.34;75.90
75146;BME280;63641;46.526;24.612;2022-12-08T08:17:29;97303.47;;;1.38;76.13
75146;BME280;63641;46.526;24.612;2022-12-08T08:19:56;97302.00;;;1.42;75.85
75146;BME280;63641;46.526;24.612;2022-12-08T08:22:26;97300.75;;;1.44;75.91
75146;BME280;63641;46.526;24.612;2022-12-08T08:24:53;97304.78;;;1.47;75.87
75146;BME280;63641;46.526;24.612;2022-12-08T08:27:20;97297.53;;;1.54;76.04
75146;BME280;63641;46.526;24.612;2022-12-08T08:29:47;97299.75;;;1.57;76.23
75146;BME280;63641;46.526;24.612;2022-12-08T08:32:15;97301.97;;;1.60;75.87
75146;BME280;63641;46.526;24.612;2022-12-08T08:34:42;97302.34;;;1.64;75.88
75146;BME280;63641;46.526;24.612;2022-12-08T08:37:08;97301.66;;;1.68;76.35
75146;BME280;63641;46.526;24.612;2022-12-08T08:39:35;97296.47;;;1.74;76.09
75146;BME280;63641;46.526;24.612;2022-12-08T08:42:02;97289.06;;;1.76;75.78
75146;BME280;63641;46.526;24.612;2022-12-08T08:44:29;97292.25;;;1.84;76.13
75146;BME280;63641;46.526;24.612;2022-12-08T08:46:55;97274.94;;;1.87;76.40
75146;BME280;63641;46.526;24.612;2022-12-08T08:49:22;97285.09;;;1.97;76.11
75146;BME280;63641;46.526;24.612;2022-12-08T08:51:49;97276.63;;;2.00;76.15
75146;BME280;63641;46.526;24.612;2022-12-08T08:54:16;97282.91;;;2.05;76.00
75146;BME280;63641;46.526;24.612;2022-12-08T08:56:42;97280.38;;;2.10;76.15
75146;BME280;63641;46.526;24.612;2022-12-08T08:59:09;97275.59;;;2.12;75.91
75146;BME280;63641;46.526;24.612;2022-12-08T09:01:37;97278.19;;;2.19;75.88
75146;BME280;63641;46.526;24.612;2022-12-08T09:04:03;97272.75;;;2.26;75.88
75146;BME280;63641;46.526;24.612;2022-12-08T09:06:31;97265.81;;;2.36;76.06
75146;BME280;63641;46.526;24.612;2022-12-08T09:08:58;97261.72;;;2.46;76.15
75146;BME280;63641;46.526;24.612;2022-12-08T09:11:24;97261.97;;;2.56;76.21
75146;BME280;63641;46.526;24.612;2022-12-08T09:13:52;97265.47;;;2.68;76.22
75146;BME280;63641;46.526;24.612;2022-12-08T09:16:20;97265.69;;;2.78;76.03
75146;BME280;63641;46.526;24.612;2022-12-08T09:18:47;97268.25;;;2.85;75.92
75146;BME280;63641;46.526;24.612;2022-12-08T09:21:17;97263.59;;;2.92;76.03
75146;BME280;63641;46.526;24.612;2022-12-08T09:23:49;97247.91;;;2.96;76.03
75146;BME280;63641;46.526;24.612;2022-12-08T09:26:16;97249.41;;;3.03;75.82
75146;BME280;63641;46.526;24.612;2022-12-08T09:28:43;97249.41;;;3.15;76.13
75146;BME280;63641;46.526;24.612;2022-12-08T09:31:13;97249.16;;;3.28;76.24
75146;BME280;63641;46.526;24.612;2022-12-08T09:33:40;97250.16;;;3.39;76.21
75146;BME280;63641;46.526;24.612;2022-12-08T09:36:08;97248.47;;;3.50;75.95
75146;BME280;63641;46.526;24.612;2022-12-08T09:38:35;97237.09;;;3.54;75.82
75146;BME280;63641;46.526;24.612;2022-12-08T09:41:07;97238.22;;;3.58;75.61
75146;BME280;63641;46.526;24.612;2022-12-08T09:44:06;97228.19;;;3.66;75.75
75146;BME280;63641;46.526;24.612;2022-12-08T09:46:36;97229.91;;;3.72;75.73
75146;BME280;63641;46.526;24.612;2022-12-08T09:49:12;97229.53;;;3.80;75.57
75146;BME280;63641;46.526;24.612;2022-12-08T09:51:41;97213.81;;;3.83;75.42
75146;BME280;63641;46.526;24.612;2022-12-08T09:54:17;97229.22;;;3.93;75.54
75146;BME280;63641;46.526;24.612;2022-12-08T09:56:47;97229.31;;;3.98;75.37
75146;BME280;63641;46.526;24.612;2022-12-08T09:59:21;97221.63;;;4.02;75.31
75146;BME280;63641;46.526;24.612;2022-12-08T10:01:48;97219.75;;;4.02;75.33
75146;BME280;63641;46.526;24.612;2022-12-08T10:04:32;97227.13;;;4.12;75.18
75146;BME280;63641;46.526;24.612;2022-12-08T10:10:01;97221.31;;;4.32;74.80
75146;BME280;63641;46.526;24.612;2022-12-08T10:15:38;97223.16;;;4.48;74.27
75146;BME280;63641;46.526;24.612;2022-12-08T10:18:18;97215.78;;;4.55;74.32
75146;BME280;63641;46.526;24.612;2022-12-08T10:20:47;97213.19;;;4.60;74.14
75146;BME280;63641;46.526;24.612;2022-12-08T10:23:23;97220.53;;;4.70;73.82
75146;BME280;63641;46.526;24.612;2022-12-08T10:26:02;97221.50;;;4.81;73.73
75146;BME280;63641;46.526;24.612;2022-12-08T10:28:31;97203.69;;;4.92;73.66
75146;BME280;63641;46.526;24.612;2022-12-08T10:30:58;97205.44;;;5.03;73.54
75146;BME280;63641;46.526;24.612;2022-12-08T10:33:26;97201.03;;;5.14;73.20
75146;BME280;63641;46.526;24.612;2022-12-08T10:35:56;97206.53;;;5.24;72.99
75146;BME280;63641;46.526;24.612;2022-12-08T10:41:11;97182.88;;;5.43;72.49
75146;BME280;63641;46.526;24.612;2022-12-08T10:43:56;97179.50;;;5.52;72.21
75146;BME280;63641;46.526;24.612;2022-12-08T10:46:26;97163.63;;;5.51;72.33
75146;BME280;63641;46.526;24.612;2022-12-08T10:51:35;97167.38;;;5.77;71.79
75146;BME280;63641;46.526;24.612;2022-12-08T10:54:03;97161.28;;;5.87;71.66
75146;BME280;63641;46.526;24.612;2022-12-08T10:56:32;97160.59;;;5.96;71.40
75146;BME280;63641;46.526;24.612;2022-12-08T10:59:13;97152.09;;;6.04;70.73
75146;BME280;63641;46.526;24.612;2022-12-08T11:01:41;97152.69;;;6.12;70.75
75146;BME280;63641;46.526;24.612;2022-12-08T11:04:19;97144.66;;;6.17;70.41
75146;BME280;63641;46.526;24.612;2022-12-08T11:06:48;97166.44;;;6.20;70.30
75146;BME280;63641;46.526;24.612;2022-12-08T11:11:49;97144.53;;;6.34;69.94
75146;BME280;63641;46.526;24.612;2022-12-08T11:14:21;97144.84;;;6.42;69.54
75146;BME280;63641;46.526;24.612;2022-12-08T11:17:04;97124.16;;;6.48;69.37
75146;BME280;63641;46.526;24.612;2022-12-08T11:19:42;97114.56;;;6.57;69.33
75146;BME280;63641;46.526;24.612;2022-12-08T11:22:43;97110.84;;;6.68;69.05
75146;BME280;63641;46.526;24.612;2022-12-08T11:25:18;97107.94;;;6.80;68.96
75146;BME280;63641;46.526;24.612;2022-12-08T11:27:48;97093.19;;;6.88;68.56
75146;BME280;63641;46.526;24.612;2022-12-08T11:30:20;97096.19;;;7.01;68.12
75146;BME280;63641;46.526;24.612;2022-12-08T11:32:50;97094.06;;;7.04;67.80
75146;BME280;63641;46.526;24.612;2022-12-08T11:35:25;97093.50;;;7.07;67.64
75146;BME280;63641;46.526;24.612;2022-12-08T11:38:13;97086.56;;;7.16;67.63
75146;BME280;63641;46.526;24.612;2022-12-08T11:43:38;97079.63;;;7.40;66.90
75146;BME280;63641;46.526;24.612;2022-12-08T11:46:20;97079.63;;;7.45;66.40
75146;BME280;63641;46.526;24.612;2022-12-08T11:48:55;97073.72;;;7.54;66.23
75146;BME280;63641;46.526;24.612;2022-12-08T11:51:52;97072.66;;;7.60;66.03
75146;BME280;63641;46.526;24.612;2022-12-08T11:54:41;97066.97;;;7.61;65.76
75146;BME280;63641;46.526;24.612;2022-12-08T11:57:11;97071.03;;;7.64;65.63
75146;BME280;63641;46.526;24.612;2022-12-08T11:59:44;97061.34;;;7.63;65.34
75146;BME280;63641;46.526;24.612;2022-12-08T12:02:20;97066.47;;;7.59;65.23
75146;BME280;63641;46.526;24.612;2022-12-08T12:10:43;97071.03;;;7.48;64.82
75146;BME280;63641;46.526;24.612;2022-12-08T12:16:15;97073.16;;;7.46;64.76
75146;BME280;63641;46.526;24.612;2022-12-08T12:18:49;97062.66;;;7.45;64.76
75146;BME280;63641;46.526;24.612;2022-12-08T12:21:20;97051.63;;;7.46;64.59
75146;BME280;63641;46.526;24.612;2022-12-08T12:23:55;97046.25;;;7.46;64.51
75146;BME280;63641;46.526;24.612;2022-12-08T12:26:25;97059.16;;;7.49;64.34
75146;BME280;63641;46.526;24.612;2022-12-08T12:31:25;97051.66;;;7.52;64.31
75146;BME280;63641;46.526;24.612;2022-12-08T12:34:13;97053.25;;;7.53;64.37
75146;BME280;63641;46.526;24.612;2022-12-08T12:36:51;97051.63;;;7.57;64.15
75146;BME280;63641;46.526;24.612;2022-12-08T12:39:21;97035.75;;;7.55;64.02
75146;BME280;63641;46.526;24.612;2022-12-08T12:41:52;97038.16;;;7.62;63.77
75146;BME280;63641;46.526;24.612;2022-12-08T12:44:36;97034.13;;;7.64;63.82
75146;BME280;63641;46.526;24.612;2022-12-08T12:47:07;97032.78;;;7.62;63.50
75146;BME280;63641;46.526;24.612;2022-12-08T12:54:41;97039.25;;;7.61;63.23
75146;BME280;63641;46.526;24.612;2022-12-08T13:07:34;97009.88;;;7.69;63.31
75146;BME280;63641;46.526;24.612;2022-12-08T13:12:44;96999.38;;;7.73;62.91
75146;BME280;63641;46.526;24.612;2022-12-08T13:15:18;96993.19;;;7.72;62.86
75146;BME280;63641;46.526;24.612;2022-12-08T13:17:47;97003.69;;;7.69;62.86
75146;BME280;63641;46.526;24.612;2022-12-08T13:20:22;97006.41;;;7.64;62.84
75146;BME280;63641;46.526;24.612;2022-12-08T13:23:10;97002.63;;;7.60;62.89
75146;BME280;63641;46.526;24.612;2022-12-08T13:28:25;97003.72;;;7.54;62.86
75146;BME280;63641;46.526;24.612;2022-12-08T13:31:00;96998.59;;;7.47;62.91
75146;BME280;63641;46.526;24.612;2022-12-08T13:38:36;97012.59;;;7.44;62.64
75146;BME280;63641;46.526;24.612;2022-12-08T13:41:12;97011.25;;;7.41;62.66
75146;BME280;63641;46.526;24.612;2022-12-08T13:43:57;96994.28;;;7.36;62.78
75146;BME280;63641;46.526;24.612;2022-12-08T13:46:51;96997.50;;;7.33;63.14
75146;BME280;63641;46.526;24.612;2022-12-08T13:49:42;97006.94;;;7.30;63.31
75146;BME280;63641;46.526;24.612;2022-12-08T13:52:36;97002.63;;;7.24;63.34
75146;BME280;63641;46.526;24.612;2022-12-08T13:55:40;97006.91;;;7.25;63.59
75146;BME280;63641;46.526;24.612;2022-12-08T14:03:24;96987.00;;;7.11;64.03
75146;BME280;63641;46.526;24.612;2022-12-08T14:05:51;96985.38;;;7.10;64.35
75146;BME280;63641;46.526;24.612;2022-12-08T14:08:38;96975.69;;;7.04;64.30
75146;BME280;63641;46.526;24.612;2022-12-08T14:11:35;96989.16;;;7.09;64.61
75146;BME280;63641;46.526;24.612;2022-12-08T14:14:07;96996.13;;;7.05;64.79
75146;BME280;63641;46.526;24.612;2022-12-08T14:16:38;96989.69;;;7.00;64.71
75146;BME280;63641;46.526;24.612;2022-12-08T14:19:23;96983.47;;;6.95;64.87
75146;BME280;63641;46.526;24.612;2022-12-08T14:22:01;96971.06;;;6.78;64.94
75146;BME280;63641;46.526;24.612;2022-12-08T14:24:32;96981.00;;;6.68;65.27
75146;BME280;63641;46.526;24.612;2022-12-08T14:27:00;96995.44;;;6.51;65.59
75146;BME280;63641;46.526;24.612;2022-12-08T14:29:55;97004.78;;;6.39;65.73
75146;BME280;63641;46.526;24.612;2022-12-08T14:32:35;97001.25;;;6.23;65.96
75146;BME280;63641;46.526;24.612;2022-12-08T14:40:09;97019.78;;;5.87;66.64
75146;BME280;63641;46.526;24.612;2022-12-08T14:43:03;97018.63;;;5.78;67.21
75146;BME280;63641;46.526;24.612;2022-12-08T14:45:30;97020.19;;;5.69;66.98
75146;BME280;63641;46.526;24.612;2022-12-08T14:48:26;97018.00;;;5.61;67.32
75146;BME280;63641;46.526;24.612;2022-12-08T14:53:51;96992.25;;;5.32;67.62
75146;BME280;63641;46.526;24.612;2022-12-08T14:56:35;96977.94;;;5.22;67.85
75146;BME280;63641;46.526;24.612;2022-12-08T14:59:27;96956.47;;;5.17;67.79
75146;BME280;63641;46.526;24.612;2022-12-08T15:04:44;96970.28;;;5.03;67.89
75146;BME280;63641;46.526;24.612;2022-12-08T15:07:16;96981.06;;;5.08;67.96